Stena Atlantica — ZCPR7 — position and weather

sailwx.info

Track history (hours):
 
Tides and Currents Weather Stations Pressure Air Temp Water Temp Dewpoint Dewpoint Depression Visibility Wind Speed Wind Dir Waves Ship Positions

Stena Atlantica

Last reported at 2015-Apr-21 02:33 UTC. Time now 2015-Apr-21 02:59 UTC.
Position N 54°40' E 010°57'.

Length 245 m; draft 8 m.

Type: Tanker. MMSI: 319161000.

Date/timePositionNaut miles runAvg speedWind from/ knotsBaromVisibWave heightAir tempDewpointWater temp
2015-Apr-21 02:33N 54°40' E 010°57'1110.9
2015-Apr-21 01:31N 54°51' E 010°52'1111.3
2015-Apr-21 00:33N 55°01' E 011°01'1111.2
2015-Apr-20 23:33N 55°12' E 011°04'1110.8
2015-Apr-20 22:33N 55°22' E 011°02'5510.2
2015-Apr-20 17:11N 56°16' E 011°21'812.3
2015-Apr-20 16:32N 56°23' E 011°28'1212.6
2015-Apr-20 15:33N 56°34' E 011°39'1312.9
2015-Apr-20 14:33N 56°45' E 011°50'1312.6
2015-Apr-20 13:33N 56°57' E 011°44'1312.8
2015-Apr-20 12:33N 57°09' E 011°36'1312.9
2015-Apr-20 11:33N 57°21' E 011°28'1212.5
2015-Apr-20 10:33N 57°32' E 011°15'1312.7
2015-Apr-20 09:33N 57°41' E 010°58'1211.5
2015-Apr-20 08:33N 57°47' E 010°40'1211.7
2015-Apr-20 07:33N 57°48' E 010°19'1312.8
2015-Apr-20 06:33N 57°47' E 009°55'1513.0
2015-Apr-20 05:25N 57°42' E 009°29'1112.7
2015-Apr-20 04:33N 57°37' E 009°10'1312.5
2015-Apr-20 03:33N 57°31' E 008°50'1712.8
2015-Apr-20 02:11N 57°21' E 008°22'2112.5
2015-Apr-20 00:28N 57°11' E 007°48'18412.0
2015-Apr-19 09:11N 54°25' E 005°27'812.6
2015-Apr-19 08:34N 54°19' E 005°18'1212.4
2015-Apr-19 07:34N 54°10' E 005°03'1312.6
2015-Apr-19 06:32N 54°01' E 004°47'8512.2
2015-Apr-18 23:33N 52°54' E 003°20'1511.2
2015-Apr-18 22:11N 52°39' E 003°10'1710.6
2015-Apr-18 20:33N 52°22' E 003°14'1211.6
2015-Apr-18 19:33N 52°13' E 003°25'1211.8
2015-Apr-18 18:33N 52°05' E 003°40'1211.6
2015-Apr-18 17:34N 52°02' E 003°57'5 5.5
2015-Apr-18 16:33N 51°58' E 004°04'0 0.1
2015-Apr-18 15:28N 51°58' E 004°04'0 0.0
2015-Apr-18 14:31N 51°58' E 004°04'0 0.0
2015-Apr-18 13:31N 51°58' E 004°04'0 0.0
2015-Apr-18 12:25N 51°58' E 004°04'0 0.0
2015-Apr-18 11:31N 51°58' E 004°04'0 0.0
2015-Apr-18 10:31N 51°58' E 004°04'0 0.0
2015-Apr-18 09:31N 51°58' E 004°04'0 0.0
2015-Apr-18 08:31N 51°58' E 004°04'0 0.0
2015-Apr-18 07:31N 51°58' E 004°04'0 0.0
2015-Apr-18 06:31N 51°58' E 004°04'0 0.0
2015-Apr-18 05:31N 51°58' E 004°04'0 0.0
2015-Apr-18 04:31N 51°58' E 004°04'0 0.0
2015-Apr-18 03:31N 51°58' E 004°04'0 0.0
2015-Apr-18 02:31N 51°58' E 004°04'0 0.0
2015-Apr-18 01:31N 51°58' E 004°04'0 0.0
2015-Apr-18 00:31N 51°58' E 004°04'0 0.0
2015-Apr-17 23:31N 51°58' E 004°04'0 0.0
2015-Apr-17 22:31N 51°58' E 004°04'0 0.0
2015-Apr-17 21:31N 51°58' E 004°04'0 0.0
2015-Apr-17 20:31N 51°58' E 004°04'0 0.0
2015-Apr-17 19:31N 51°58' E 004°04'0 0.0
2015-Apr-17 18:31N 51°58' E 004°04'0 0.0
2015-Apr-17 17:31N 51°58' E 004°04'0 0.0
2015-Apr-17 16:31N 51°58' E 004°04'0 0.0
2015-Apr-17 15:31N 51°58' E 004°04'0 0.0
2015-Apr-17 14:31N 51°58' E 004°04'0 0.0
2015-Apr-17 13:31N 51°58' E 004°04'0 0.0
2015-Apr-17 12:31N 51°58' E 004°04'0 0.0
2015-Apr-17 11:28N 51°58' E 004°04'0 0.0
2015-Apr-17 10:25N 51°58' E 004°04'0 0.0
2015-Apr-17 09:31N 51°58' E 004°04'0 0.0
2015-Apr-17 08:28N 51°58' E 004°04'0 0.0
2015-Apr-17 07:16N 51°58' E 004°04'0 0.0
2015-Apr-17 06:31N 51°58' E 004°04'0 0.0
2015-Apr-17 05:31N 51°58' E 004°04'0 0.0
2015-Apr-17 04:28N 51°58' E 004°04'0 0.3
2015-Apr-17 03:33N 51°58' E 004°04'5 5.4
2015-Apr-17 02:33N 52°00' E 003°57'8 7.5
2015-Apr-17 01:33N 51°59' E 003°44'6 6.4
2015-Apr-17 00:33N 51°57' E 003°35'6 6.3
2015-Apr-16 23:33N 51°54' E 003°26'1 1.4
2015-Apr-16 22:30N 51°53' E 003°25'0 0.2
2015-Apr-16 21:24N 51°53' E 003°25'0 0.0
2015-Apr-16 20:33N 51°53' E 003°25'0 0.0
2015-Apr-16 19:30N 51°53' E 003°25'0 0.0
2015-Apr-16 18:27N 51°53' E 003°25'0 0.0
2015-Apr-16 17:24N 51°53' E 003°25'0 0.0
2015-Apr-16 16:30N 51°53' E 003°25'0 0.1
2015-Apr-16 15:27N 51°53' E 003°25'0 0.2
2015-Apr-16 14:33N 51°53' E 003°25'0 0.1
2015-Apr-16 13:33N 51°53' E 003°25'0 0.0
2015-Apr-16 12:33N 51°53' E 003°25'0 0.0
2015-Apr-16 11:30N 51°53' E 003°25'0 0.0
2015-Apr-16 10:33N 51°53' E 003°25'0 0.3
2015-Apr-16 09:33N 51°53' E 003°25'0 0.1
2015-Apr-16 08:27N 51°53' E 003°25'0 0.0
2015-Apr-16 07:30N 51°53' E 003°25'0 0.0
2015-Apr-16 06:28N 51°53' E 003°25'0 0.0
2015-Apr-16 05:33N 51°53' E 003°25'0 0.0
2015-Apr-16 04:06N 51°53' E 003°25'0 0.2
2015-Apr-16 03:21N 51°53' E 003°25'0 0.2
2015-Apr-16 02:33N 51°53' E 003°25'0 0.0
2015-Apr-16 01:33N 51°53' E 003°25'0 0.0
2015-Apr-16 00:33N 51°53' E 003°25'1 1.1
2015-Apr-15 23:33N 51°53' E 003°23'8 7.8
2015-Apr-15 22:32N 51°53' E 003°10'22 9.0
2015-Apr-15 20:08N 52°01' E 002°38'813.1
2015-Apr-15 19:33N 52°09' E 002°39'1613.4
2015-Apr-15 18:23N 52°23' E 002°48'2513.5
2015-Apr-15 16:33N 52°45' E 003°07'1312.7
2015-Apr-15 15:33N 52°56' E 003°17'1212.0
2015-Apr-15 14:33N 53°08' E 003°23'2411.3
2015-Apr-15 12:28N 53°30' E 003°34'3311.3
2015-Apr-15 09:32N 53°57' E 004°08'1212.1
2015-Apr-15 08:33N 54°07' E 004°18'1212.1
2015-Apr-15 07:33N 54°17' E 004°29'1211.8
2015-Apr-15 06:32N 54°28' E 004°39'28710.2
2015-Apr-14 02:18N 57°46' E 010°52'6 8.1
2015-Apr-14 01:33N 57°41' E 010°59'1111.2
2015-Apr-14 00:33N 57°33' E 011°14'1110.9
2015-Apr-13 23:33N 57°25' E 011°28'1111.4
2015-Apr-13 22:33N 57°14' E 011°35'1110.9
2015-Apr-13 21:33N 57°04' E 011°42'1110.9
2015-Apr-13 20:32N 56°54' E 011°49'1010.1
2015-Apr-13 19:33N 56°44' E 011°53'1211.8
2015-Apr-13 18:33N 56°34' E 011°42'120 8.5
2015-Apr-13 04:33N 54°36' E 011°07'10 9.8
2015-Apr-13 03:33N 54°33' E 011°22'10 9.8
2015-Apr-13 02:33N 54°28' E 011°38'10 9.5
2015-Apr-13 01:33N 54°26' E 011°53'10 9.9
2015-Apr-13 00:33N 54°27' E 012°10'1110.5
2015-Apr-12 23:33N 54°36' E 012°17'1010.2
2015-Apr-12 22:33N 54°42' E 012°31'7 7.1
2015-Apr-12 21:33N 54°46' E 012°42'6 6.1
2015-Apr-12 20:33N 54°48' E 012°52'1211.8
2015-Apr-12 19:33N 54°53' E 013°11'1212.2
2015-Apr-12 18:33N 54°57' E 013°30'1211.8
2015-Apr-12 17:33N 55°01' E 013°50'1111.3
2015-Apr-12 16:33N 55°06' E 014°08'1111.2
2015-Apr-12 15:33N 55°11' E 014°25'1111.0
2015-Apr-12 14:33N 55°18' E 014°40'8 8.3
2015-Apr-12 13:33N 55°19' E 014°54'1111.2
2015-Apr-12 12:33N 55°24' E 015°12'1110.9
2015-Apr-12 11:33N 55°28' E 015°30'1510.5
2015-Apr-12 10:11N 55°32' E 015°55'34311.2
2015-Apr-11 03:31N 59°38' E 023°21'  
Track history (hours):
 
Tides and Currents Weather Stations Pressure Air Temp Water Temp Dewpoint Dewpoint Depression Visibility Wind Speed Wind Dir Waves Ship Positions

Stena Atlantica

Last reported at 2015-Apr-21 02:33 UTC. Time now 2015-Apr-21 02:59 UTC.
Position N 54°40' E 010°57'.

Length 245 m; draft 8 m.

Type: Tanker. MMSI: 319161000.

Date/timePositionNaut miles runAvg speedWind from/ knotsBaromVisibWave heightAir tempDewpointWater temp
2015-Apr-21 02:33N 54°40' E 010°57'1110.9
2015-Apr-21 01:31N 54°51' E 010°52'1111.3
2015-Apr-21 00:33N 55°01' E 011°01'1111.2
2015-Apr-20 23:33N 55°12' E 011°04'1110.8
2015-Apr-20 22:33N 55°22' E 011°02'5510.2
2015-Apr-20 17:11N 56°16' E 011°21'812.3
2015-Apr-20 16:32N 56°23' E 011°28'1212.6
2015-Apr-20 15:33N 56°34' E 011°39'1312.9
2015-Apr-20 14:33N 56°45' E 011°50'1312.6
2015-Apr-20 13:33N 56°57' E 011°44'1312.8
2015-Apr-20 12:33N 57°09' E 011°36'1312.9
2015-Apr-20 11:33N 57°21' E 011°28'1212.5
2015-Apr-20 10:33N 57°32' E 011°15'1312.7
2015-Apr-20 09:33N 57°41' E 010°58'1211.5
2015-Apr-20 08:33N 57°47' E 010°40'1211.7
2015-Apr-20 07:33N 57°48' E 010°19'1312.8
2015-Apr-20 06:33N 57°47' E 009°55'1513.0
2015-Apr-20 05:25N 57°42' E 009°29'1112.7
2015-Apr-20 04:33N 57°37' E 009°10'1312.5
2015-Apr-20 03:33N 57°31' E 008°50'1712.8
2015-Apr-20 02:11N 57°21' E 008°22'2112.5
2015-Apr-20 00:28N 57°11' E 007°48'18412.0
2015-Apr-19 09:11N 54°25' E 005°27'812.6
2015-Apr-19 08:34N 54°19' E 005°18'1212.4
2015-Apr-19 07:34N 54°10' E 005°03'1312.6
2015-Apr-19 06:32N 54°01' E 004°47'8512.2
2015-Apr-18 23:33N 52°54' E 003°20'1511.2
2015-Apr-18 22:11N 52°39' E 003°10'1710.6
2015-Apr-18 20:33N 52°22' E 003°14'1211.6
2015-Apr-18 19:33N 52°13' E 003°25'1211.8
2015-Apr-18 18:33N 52°05' E 003°40'1211.6
2015-Apr-18 17:34N 52°02' E 003°57'5 5.5
2015-Apr-18 16:33N 51°58' E 004°04'0 0.1
2015-Apr-18 15:28N 51°58' E 004°04'0 0.0
2015-Apr-18 14:31N 51°58' E 004°04'0 0.0
2015-Apr-18 13:31N 51°58' E 004°04'0 0.0
2015-Apr-18 12:25N 51°58' E 004°04'0 0.0
2015-Apr-18 11:31N 51°58' E 004°04'0 0.0
2015-Apr-18 10:31N 51°58' E 004°04'0 0.0
2015-Apr-18 09:31N 51°58' E 004°04'0 0.0
2015-Apr-18 08:31N 51°58' E 004°04'0 0.0
2015-Apr-18 07:31N 51°58' E 004°04'0 0.0
2015-Apr-18 06:31N 51°58' E 004°04'0 0.0
2015-Apr-18 05:31N 51°58' E 004°04'0 0.0
2015-Apr-18 04:31N 51°58' E 004°04'0 0.0
2015-Apr-18 03:31N 51°58' E 004°04'0 0.0
2015-Apr-18 02:31N 51°58' E 004°04'0 0.0
2015-Apr-18 01:31N 51°58' E 004°04'0 0.0
2015-Apr-18 00:31N 51°58' E 004°04'0 0.0
2015-Apr-17 23:31N 51°58' E 004°04'0 0.0
2015-Apr-17 22:31N 51°58' E 004°04'0 0.0
2015-Apr-17 21:31N 51°58' E 004°04'0 0.0
2015-Apr-17 20:31N 51°58' E 004°04'0 0.0
2015-Apr-17 19:31N 51°58' E 004°04'0 0.0
2015-Apr-17 18:31N 51°58' E 004°04'0 0.0
2015-Apr-17 17:31N 51°58' E 004°04'0 0.0
2015-Apr-17 16:31N 51°58' E 004°04'0 0.0
2015-Apr-17 15:31N 51°58' E 004°04'0 0.0
2015-Apr-17 14:31N 51°58' E 004°04'0 0.0
2015-Apr-17 13:31N 51°58' E 004°04'0 0.0
2015-Apr-17 12:31N 51°58' E 004°04'0 0.0
2015-Apr-17 11:28N 51°58' E 004°04'0 0.0
2015-Apr-17 10:25N 51°58' E 004°04'0 0.0
2015-Apr-17 09:31N 51°58' E 004°04'0 0.0
2015-Apr-17 08:28N 51°58' E 004°04'0 0.0
2015-Apr-17 07:16N 51°58' E 004°04'0 0.0
2015-Apr-17 06:31N 51°58' E 004°04'0 0.0
2015-Apr-17 05:31N 51°58' E 004°04'0 0.0
2015-Apr-17 04:28N 51°58' E 004°04'0 0.3
2015-Apr-17 03:33N 51°58' E 004°04'5 5.4
2015-Apr-17 02:33N 52°00' E 003°57'8 7.5
2015-Apr-17 01:33N 51°59' E 003°44'6 6.4
2015-Apr-17 00:33N 51°57' E 003°35'6 6.3
2015-Apr-16 23:33N 51°54' E 003°26'1 1.4
2015-Apr-16 22:30N 51°53' E 003°25'0 0.2
2015-Apr-16 21:24N 51°53' E 003°25'0 0.0
2015-Apr-16 20:33N 51°53' E 003°25'0 0.0
2015-Apr-16 19:30N 51°53' E 003°25'0 0.0
2015-Apr-16 18:27N 51°53' E 003°25'0 0.0
2015-Apr-16 17:24N 51°53' E 003°25'0 0.0
2015-Apr-16 16:30N 51°53' E 003°25'0 0.1
2015-Apr-16 15:27N 51°53' E 003°25'0 0.2
2015-Apr-16 14:33N 51°53' E 003°25'0 0.1
2015-Apr-16 13:33N 51°53' E 003°25'0 0.0
2015-Apr-16 12:33N 51°53' E 003°25'0 0.0
2015-Apr-16 11:30N 51°53' E 003°25'0 0.0
2015-Apr-16 10:33N 51°53' E 003°25'0 0.3
2015-Apr-16 09:33N 51°53' E 003°25'0 0.1
2015-Apr-16 08:27N 51°53' E 003°25'0 0.0
2015-Apr-16 07:30N 51°53' E 003°25'0 0.0
2015-Apr-16 06:28N 51°53' E 003°25'0 0.0
2015-Apr-16 05:33N 51°53' E 003°25'0 0.0
2015-Apr-16 04:06N 51°53' E 003°25'0 0.2
2015-Apr-16 03:21N 51°53' E 003°25'0 0.2
2015-Apr-16 02:33N 51°53' E 003°25'0 0.0
2015-Apr-16 01:33N 51°53' E 003°25'0 0.0
2015-Apr-16 00:33N 51°53' E 003°25'1 1.1
2015-Apr-15 23:33N 51°53' E 003°23'8 7.8
2015-Apr-15 22:32N 51°53' E 003°10'22 9.0
2015-Apr-15 20:08N 52°01' E 002°38'813.1
2015-Apr-15 19:33N 52°09' E 002°39'1613.4
2015-Apr-15 18:23N 52°23' E 002°48'2513.5
2015-Apr-15 16:33N 52°45' E 003°07'1312.7
2015-Apr-15 15:33N 52°56' E 003°17'1212.0
2015-Apr-15 14:33N 53°08' E 003°23'2411.3
2015-Apr-15 12:28N 53°30' E 003°34'3311.3
2015-Apr-15 09:32N 53°57' E 004°08'1212.1
2015-Apr-15 08:33N 54°07' E 004°18'1212.1
2015-Apr-15 07:33N 54°17' E 004°29'1211.8
2015-Apr-15 06:32N 54°28' E 004°39'28710.2
2015-Apr-14 02:18N 57°46' E 010°52'6 8.1
2015-Apr-14 01:33N 57°41' E 010°59'1111.2
2015-Apr-14 00:33N 57°33' E 011°14'1110.9
2015-Apr-13 23:33N 57°25' E 011°28'1111.4
2015-Apr-13 22:33N 57°14' E 011°35'1110.9
2015-Apr-13 21:33N 57°04' E 011°42'1110.9
2015-Apr-13 20:32N 56°54' E 011°49'1010.1
2015-Apr-13 19:33N 56°44' E 011°53'1211.8
2015-Apr-13 18:33N 56°34' E 011°42'120 8.5
2015-Apr-13 04:33N 54°36' E 011°07'10 9.8
2015-Apr-13 03:33N 54°33' E 011°22'10 9.8
2015-Apr-13 02:33N 54°28' E 011°38'10 9.5
2015-Apr-13 01:33N 54°26' E 011°53'10 9.9
2015-Apr-13 00:33N 54°27' E 012°10'1110.5
2015-Apr-12 23:33N 54°36' E 012°17'1010.2
2015-Apr-12 22:33N 54°42' E 012°31'7 7.1
2015-Apr-12 21:33N 54°46' E 012°42'6 6.1
2015-Apr-12 20:33N 54°48' E 012°52'1211.8
2015-Apr-12 19:33N 54°53' E 013°11'1212.2
2015-Apr-12 18:33N 54°57' E 013°30'1211.8
2015-Apr-12 17:33N 55°01' E 013°50'1111.3
2015-Apr-12 16:33N 55°06' E 014°08'1111.2
2015-Apr-12 15:33N 55°11' E 014°25'1111.0
2015-Apr-12 14:33N 55°18' E 014°40'8 8.3
2015-Apr-12 13:33N 55°19' E 014°54'1111.2
2015-Apr-12 12:33N 55°24' E 015°12'1110.9
2015-Apr-12 11:33N 55°28' E 015°30'1510.5
2015-Apr-12 10:11N 55°32' E 015°55'34311.2
2015-Apr-11 03:31N 59°38' E 023°21'  

Dump ship's entire track history